sensor_id;sensor_type;location;lat;lon;timestamp;P1;durP1;ratioP1;P2;durP2;ratioP2
59042;SDS011;44826;51.596;5.624;2022-07-09T00:00:52;7.15;;;5.35;;
59042;SDS011;44826;51.596;5.624;2022-07-09T00:03:19;9.57;;;5.47;;
59042;SDS011;44826;51.596;5.624;2022-07-09T00:05:44;8.35;;;5.30;;
59042;SDS011;44826;51.596;5.624;2022-07-09T00:08:10;7.68;;;4.95;;
59042;SDS011;44826;51.596;5.624;2022-07-09T00:10:35;6.65;;;5.05;;
59042;SDS011;44826;51.596;5.624;2022-07-09T00:13:00;5.97;;;5.00;;
59042;SDS011;44826;51.596;5.624;2022-07-09T00:15:25;8.15;;;6.00;;
59042;SDS011;44826;51.596;5.624;2022-07-09T00:17:51;7.78;;;5.68;;
59042;SDS011;44826;51.596;5.624;2022-07-09T00:20:16;8.90;;;5.75;;
59042;SDS011;44826;51.596;5.624;2022-07-09T00:22:42;8.52;;;5.97;;
59042;SDS011;44826;51.596;5.624;2022-07-09T00:25:07;7.75;;;5.63;;
59042;SDS011;44826;51.596;5.624;2022-07-09T00:27:33;7.43;;;6.40;;
59042;SDS011;44826;51.596;5.624;2022-07-09T00:29:58;9.00;;;6.05;;
59042;SDS011;44826;51.596;5.624;2022-07-09T00:32:23;8.25;;;5.90;;
59042;SDS011;44826;51.596;5.624;2022-07-09T00:34:49;8.45;;;5.60;;
59042;SDS011;44826;51.596;5.624;2022-07-09T00:37:14;7.55;;;5.82;;
59042;SDS011;44826;51.596;5.624;2022-07-09T00:39:39;8.52;;;6.43;;
59042;SDS011;44826;51.596;5.624;2022-07-09T00:42:05;10.13;;;6.30;;
59042;SDS011;44826;51.596;5.624;2022-07-09T00:44:32;8.60;;;6.32;;
59042;SDS011;44826;51.596;5.624;2022-07-09T00:46:57;8.50;;;6.22;;
59042;SDS011;44826;51.596;5.624;2022-07-09T00:49:23;9.30;;;6.28;;
59042;SDS011;44826;51.596;5.624;2022-07-09T00:51:50;8.82;;;6.82;;
59042;SDS011;44826;51.596;5.624;2022-07-09T00:54:16;8.63;;;5.93;;
59042;SDS011;44826;51.596;5.624;2022-07-09T00:56:41;9.07;;;6.15;;
59042;SDS011;44826;51.596;5.624;2022-07-09T00:59:07;7.45;;;5.57;;
59042;SDS011;44826;51.596;5.624;2022-07-09T01:01:37;7.70;;;6.38;;
59042;SDS011;44826;51.596;5.624;2022-07-09T01:04:03;9.02;;;6.32;;
59042;SDS011;44826;51.596;5.624;2022-07-09T01:06:28;8.55;;;6.13;;
59042;SDS011;44826;51.596;5.624;2022-07-09T01:08:54;8.10;;;6.10;;
59042;SDS011;44826;51.596;5.624;2022-07-09T01:11:19;8.35;;;6.00;;
59042;SDS011;44826;51.596;5.624;2022-07-09T01:13:44;10.45;;;6.60;;
59042;SDS011;44826;51.596;5.624;2022-07-09T01:16:14;7.97;;;6.13;;
59042;SDS011;44826;51.596;5.624;2022-07-09T01:18:43;6.90;;;6.20;;
59042;SDS011;44826;51.596;5.624;2022-07-09T01:21:09;10.55;;;6.63;;
59042;SDS011;44826;51.596;5.624;2022-07-09T01:23:34;7.40;;;6.30;;
59042;SDS011;44826;51.596;5.624;2022-07-09T01:25:59;10.40;;;6.55;;
59042;SDS011;44826;51.596;5.624;2022-07-09T01:28:25;9.48;;;7.20;;
59042;SDS011;44826;51.596;5.624;2022-07-09T01:30:51;9.00;;;7.45;;
59042;SDS011;44826;51.596;5.624;2022-07-09T01:33:17;7.28;;;6.55;;
59042;SDS011;44826;51.596;5.624;2022-07-09T01:35:42;8.68;;;6.45;;
59042;SDS011;44826;51.596;5.624;2022-07-09T01:38:07;8.98;;;7.20;;
59042;SDS011;44826;51.596;5.624;2022-07-09T01:40:33;9.05;;;7.05;;
59042;SDS011;44826;51.596;5.624;2022-07-09T01:42:58;10.13;;;7.25;;
59042;SDS011;44826;51.596;5.624;2022-07-09T01:45:24;9.32;;;7.32;;
59042;SDS011;44826;51.596;5.624;2022-07-09T01:47:49;9.55;;;7.35;;
59042;SDS011;44826;51.596;5.624;2022-07-09T01:50:14;8.77;;;7.22;;
59042;SDS011;44826;51.596;5.624;2022-07-09T01:52:40;7.57;;;6.22;;
59042;SDS011;44826;51.596;5.624;2022-07-09T01:55:05;7.40;;;6.15;;
59042;SDS011;44826;51.596;5.624;2022-07-09T01:57:31;8.82;;;6.90;;
59042;SDS011;44826;51.596;5.624;2022-07-09T01:59:56;8.57;;;6.82;;
59042;SDS011;44826;51.596;5.624;2022-07-09T02:02:21;9.80;;;7.22;;
59042;SDS011;44826;51.596;5.624;2022-07-09T02:04:47;8.55;;;7.18;;
59042;SDS011;44826;51.596;5.624;2022-07-09T02:07:13;7.90;;;6.50;;
59042;SDS011;44826;51.596;5.624;2022-07-09T02:09:39;9.70;;;7.35;;
59042;SDS011;44826;51.596;5.624;2022-07-09T02:12:05;8.45;;;6.90;;
59042;SDS011;44826;51.596;5.624;2022-07-09T02:14:31;7.95;;;6.30;;
59042;SDS011;44826;51.596;5.624;2022-07-09T02:16:56;9.60;;;7.20;;
59042;SDS011;44826;51.596;5.624;2022-07-09T02:19:22;8.38;;;6.22;;
59042;SDS011;44826;51.596;5.624;2022-07-09T02:21:47;7.43;;;6.70;;
59042;SDS011;44826;51.596;5.624;2022-07-09T02:24:13;8.48;;;7.03;;
59042;SDS011;44826;51.596;5.624;2022-07-09T02:26:39;7.72;;;6.93;;
59042;SDS011;44826;51.596;5.624;2022-07-09T02:29:04;9.80;;;7.20;;
59042;SDS011;44826;51.596;5.624;2022-07-09T02:31:30;8.55;;;7.13;;
59042;SDS011;44826;51.596;5.624;2022-07-09T02:33:55;11.13;;;7.68;;
59042;SDS011;44826;51.596;5.624;2022-07-09T02:36:21;12.43;;;7.65;;
59042;SDS011;44826;51.596;5.624;2022-07-09T02:38:47;11.38;;;7.72;;
59042;SDS011;44826;51.596;5.624;2022-07-09T02:41:12;10.63;;;7.47;;
59042;SDS011;44826;51.596;5.624;2022-07-09T02:43:37;10.25;;;7.40;;
59042;SDS011;44826;51.596;5.624;2022-07-09T02:46:03;13.60;;;7.70;;
59042;SDS011;44826;51.596;5.624;2022-07-09T02:48:29;11.07;;;7.72;;
59042;SDS011;44826;51.596;5.624;2022-07-09T02:50:55;9.38;;;7.38;;
59042;SDS011;44826;51.596;5.624;2022-07-09T02:53:20;8.55;;;7.07;;
59042;SDS011;44826;51.596;5.624;2022-07-09T02:55:46;10.70;;;7.40;;
59042;SDS011;44826;51.596;5.624;2022-07-09T02:58:11;8.07;;;6.88;;
59042;SDS011;44826;51.596;5.624;2022-07-09T03:00:38;9.30;;;7.68;;
59042;SDS011;44826;51.596;5.624;2022-07-09T03:03:07;9.75;;;6.93;;
59042;SDS011;44826;51.596;5.624;2022-07-09T03:05:32;9.43;;;7.72;;
59042;SDS011;44826;51.596;5.624;2022-07-09T03:07:58;10.88;;;7.35;;
59042;SDS011;44826;51.596;5.624;2022-07-09T03:10:24;10.00;;;7.18;;
59042;SDS011;44826;51.596;5.624;2022-07-09T03:12:49;10.45;;;6.93;;
59042;SDS011;44826;51.596;5.624;2022-07-09T03:15:14;10.38;;;7.15;;
59042;SDS011;44826;51.596;5.624;2022-07-09T03:17:42;13.07;;;7.20;;
59042;SDS011;44826;51.596;5.624;2022-07-09T03:20:08;9.85;;;7.80;;
59042;SDS011;44826;51.596;5.624;2022-07-09T03:22:34;9.90;;;7.85;;
59042;SDS011;44826;51.596;5.624;2022-07-09T03:24:59;10.40;;;9.02;;
59042;SDS011;44826;51.596;5.624;2022-07-09T03:27:24;11.88;;;8.52;;
59042;SDS011;44826;51.596;5.624;2022-07-09T03:29:50;10.90;;;8.35;;
59042;SDS011;44826;51.596;5.624;2022-07-09T03:32:15;11.32;;;8.70;;
59042;SDS011;44826;51.596;5.624;2022-07-09T03:34:40;11.73;;;8.52;;
59042;SDS011;44826;51.596;5.624;2022-07-09T03:37:05;11.63;;;8.95;;
59042;SDS011;44826;51.596;5.624;2022-07-09T03:39:31;14.82;;;8.55;;
59042;SDS011;44826;51.596;5.624;2022-07-09T03:41:56;10.13;;;7.97;;
59042;SDS011;44826;51.596;5.624;2022-07-09T03:44:21;10.13;;;7.22;;
59042;SDS011;44826;51.596;5.624;2022-07-09T03:46:47;11.32;;;8.30;;
59042;SDS011;44826;51.596;5.624;2022-07-09T03:49:12;10.40;;;8.85;;
59042;SDS011;44826;51.596;5.624;2022-07-09T03:51:37;10.27;;;8.02;;
59042;SDS011;44826;51.596;5.624;2022-07-09T03:54:03;10.32;;;6.93;;
59042;SDS011;44826;51.596;5.624;2022-07-09T03:56:28;10.07;;;7.32;;
59042;SDS011;44826;51.596;5.624;2022-07-09T03:58:54;12.98;;;7.78;;
59042;SDS011;44826;51.596;5.624;2022-07-09T04:01:19;10.20;;;7.15;;
59042;SDS011;44826;51.596;5.624;2022-07-09T04:03:45;11.18;;;7.57;;
59042;SDS011;44826;51.596;5.624;2022-07-09T04:06:10;10.10;;;7.90;;
59042;SDS011;44826;51.596;5.624;2022-07-09T04:08:36;9.00;;;7.32;;
59042;SDS011;44826;51.596;5.624;2022-07-09T04:11:01;9.10;;;7.25;;
59042;SDS011;44826;51.596;5.624;2022-07-09T04:13:26;8.52;;;7.22;;
59042;SDS011;44826;51.596;5.624;2022-07-09T04:15:52;11.80;;;7.20;;
59042;SDS011;44826;51.596;5.624;2022-07-09T04:18:17;11.90;;;7.63;;
59042;SDS011;44826;51.596;5.624;2022-07-09T04:20:42;10.23;;;7.20;;
59042;SDS011;44826;51.596;5.624;2022-07-09T04:23:08;10.15;;;7.70;;
59042;SDS011;44826;51.596;5.624;2022-07-09T04:25:33;9.43;;;7.10;;
59042;SDS011;44826;51.596;5.624;2022-07-09T04:27:58;9.88;;;7.43;;
59042;SDS011;44826;51.596;5.624;2022-07-09T04:30:26;9.63;;;7.63;;
59042;SDS011;44826;51.596;5.624;2022-07-09T04:32:52;10.77;;;8.05;;
59042;SDS011;44826;51.596;5.624;2022-07-09T04:35:18;9.65;;;7.45;;
59042;SDS011;44826;51.596;5.624;2022-07-09T04:37:43;8.85;;;7.43;;
59042;SDS011;44826;51.596;5.624;2022-07-09T04:40:09;11.00;;;8.07;;
59042;SDS011;44826;51.596;5.624;2022-07-09T04:42:34;10.65;;;7.90;;
59042;SDS011;44826;51.596;5.624;2022-07-09T04:45:00;10.90;;;8.25;;
59042;SDS011;44826;51.596;5.624;2022-07-09T04:47:25;9.43;;;7.13;;
59042;SDS011;44826;51.596;5.624;2022-07-09T04:49:51;9.02;;;7.35;;
59042;SDS011;44826;51.596;5.624;2022-07-09T04:52:16;8.50;;;7.25;;
59042;SDS011;44826;51.596;5.624;2022-07-09T04:54:44;9.10;;;7.10;;
59042;SDS011;44826;51.596;5.624;2022-07-09T04:57:10;8.43;;;6.93;;
59042;SDS011;44826;51.596;5.624;2022-07-09T04:59:36;9.15;;;7.47;;
59042;SDS011;44826;51.596;5.624;2022-07-09T05:02:01;11.32;;;7.68;;
59042;SDS011;44826;51.596;5.624;2022-07-09T05:04:27;10.50;;;7.50;;
59042;SDS011;44826;51.596;5.624;2022-07-09T05:06:52;11.27;;;7.50;;
59042;SDS011;44826;51.596;5.624;2022-07-09T05:09:17;12.75;;;7.70;;
59042;SDS011;44826;51.596;5.624;2022-07-09T05:11:43;10.95;;;8.00;;
59042;SDS011;44826;51.596;5.624;2022-07-09T05:14:08;10.05;;;8.20;;
59042;SDS011;44826;51.596;5.624;2022-07-09T05:16:33;14.65;;;8.55;;
59042;SDS011;44826;51.596;5.624;2022-07-09T05:18:59;13.38;;;8.63;;
59042;SDS011;44826;51.596;5.624;2022-07-09T05:21:24;13.40;;;8.73;;
59042;SDS011;44826;51.596;5.624;2022-07-09T05:23:50;12.68;;;9.73;;
59042;SDS011;44826;51.596;5.624;2022-07-09T05:26:15;10.43;;;8.75;;
59042;SDS011;44826;51.596;5.624;2022-07-09T05:28:41;12.02;;;9.10;;
59042;SDS011;44826;51.596;5.624;2022-07-09T05:31:06;11.38;;;8.82;;
59042;SDS011;44826;51.596;5.624;2022-07-09T05:33:31;13.15;;;9.27;;
59042;SDS011;44826;51.596;5.624;2022-07-09T05:35:57;13.57;;;10.07;;
59042;SDS011;44826;51.596;5.624;2022-07-09T05:38:22;15.93;;;10.48;;
59042;SDS011;44826;51.596;5.624;2022-07-09T05:40:48;12.40;;;9.93;;
59042;SDS011;44826;51.596;5.624;2022-07-09T05:43:13;15.93;;;11.77;;
59042;SDS011;44826;51.596;5.624;2022-07-09T05:45:39;14.88;;;11.20;;
59042;SDS011;44826;51.596;5.624;2022-07-09T05:48:04;15.82;;;11.50;;
59042;SDS011;44826;51.596;5.624;2022-07-09T05:50:29;18.00;;;12.32;;
59042;SDS011;44826;51.596;5.624;2022-07-09T05:52:55;17.08;;;12.32;;
59042;SDS011;44826;51.596;5.624;2022-07-09T05:55:20;18.52;;;12.77;;
59042;SDS011;44826;51.596;5.624;2022-07-09T05:57:45;17.20;;;12.85;;
59042;SDS011;44826;51.596;5.624;2022-07-09T06:00:11;18.92;;;12.85;;
59042;SDS011;44826;51.596;5.624;2022-07-09T06:02:37;18.55;;;13.07;;
59042;SDS011;44826;51.596;5.624;2022-07-09T06:05:02;20.40;;;13.40;;
59042;SDS011;44826;51.596;5.624;2022-07-09T06:07:28;19.73;;;14.15;;
59042;SDS011;44826;51.596;5.624;2022-07-09T06:09:53;19.67;;;15.13;;
59042;SDS011;44826;51.596;5.624;2022-07-09T06:12:19;18.58;;;14.40;;
59042;SDS011;44826;51.596;5.624;2022-07-09T06:14:44;21.20;;;15.45;;
59042;SDS011;44826;51.596;5.624;2022-07-09T06:17:09;22.50;;;15.93;;
59042;SDS011;44826;51.596;5.624;2022-07-09T06:19:35;26.25;;;15.77;;
59042;SDS011;44826;51.596;5.624;2022-07-09T06:22:00;23.70;;;16.50;;
59042;SDS011;44826;51.596;5.624;2022-07-09T06:24:26;20.48;;;14.90;;
59042;SDS011;44826;51.596;5.624;2022-07-09T06:26:52;20.80;;;15.75;;
59042;SDS011;44826;51.596;5.624;2022-07-09T06:29:18;20.92;;;15.30;;
59042;SDS011;44826;51.596;5.624;2022-07-09T06:31:43;22.95;;;16.13;;
59042;SDS011;44826;51.596;5.624;2022-07-09T06:34:09;22.10;;;16.30;;
59042;SDS011;44826;51.596;5.624;2022-07-09T06:36:35;20.77;;;15.52;;
59042;SDS011;44826;51.596;5.624;2022-07-09T06:39:00;21.70;;;15.85;;
59042;SDS011;44826;51.596;5.624;2022-07-09T06:41:44;19.80;;;15.00;;
59042;SDS011;44826;51.596;5.624;2022-07-09T06:44:10;21.23;;;16.25;;
59042;SDS011;44826;51.596;5.624;2022-07-09T06:46:35;21.98;;;16.63;;
59042;SDS011;44826;51.596;5.624;2022-07-09T06:49:00;21.08;;;15.85;;
59042;SDS011;44826;51.596;5.624;2022-07-09T06:51:26;21.40;;;16.67;;
59042;SDS011;44826;51.596;5.624;2022-07-09T06:53:51;21.27;;;15.98;;
59042;SDS011;44826;51.596;5.624;2022-07-09T06:56:16;21.05;;;16.23;;
59042;SDS011;44826;51.596;5.624;2022-07-09T06:58:41;26.48;;;17.45;;
59042;SDS011;44826;51.596;5.624;2022-07-09T07:01:07;23.23;;;15.88;;
59042;SDS011;44826;51.596;5.624;2022-07-09T07:03:32;19.70;;;15.05;;
59042;SDS011;44826;51.596;5.624;2022-07-09T07:05:57;20.88;;;14.98;;
59042;SDS011;44826;51.596;5.624;2022-07-09T07:08:22;19.40;;;14.52;;
59042;SDS011;44826;51.596;5.624;2022-07-09T07:10:48;19.27;;;14.43;;
59042;SDS011;44826;51.596;5.624;2022-07-09T07:13:13;18.80;;;14.68;;
59042;SDS011;44826;51.596;5.624;2022-07-09T07:15:38;20.90;;;15.23;;
59042;SDS011;44826;51.596;5.624;2022-07-09T07:18:04;17.60;;;12.32;;
59042;SDS011;44826;51.596;5.624;2022-07-09T07:20:29;19.15;;;13.50;;
59042;SDS011;44826;51.596;5.624;2022-07-09T07:22:54;20.10;;;12.95;;
59042;SDS011;44826;51.596;5.624;2022-07-09T07:25:19;16.55;;;13.35;;
59042;SDS011;44826;51.596;5.624;2022-07-09T07:27:45;13.25;;;10.18;;
59042;SDS011;44826;51.596;5.624;2022-07-09T07:30:10;15.40;;;12.43;;
59042;SDS011;44826;51.596;5.624;2022-07-09T07:32:36;15.95;;;12.73;;
59042;SDS011;44826;51.596;5.624;2022-07-09T07:35:01;17.60;;;13.30;;
59042;SDS011;44826;51.596;5.624;2022-07-09T07:37:27;17.95;;;12.88;;
59042;SDS011;44826;51.596;5.624;2022-07-09T07:39:53;19.15;;;13.15;;
59042;SDS011;44826;51.596;5.624;2022-07-09T07:42:18;18.38;;;13.23;;
59042;SDS011;44826;51.596;5.624;2022-07-09T07:44:43;14.18;;;11.35;;
59042;SDS011;44826;51.596;5.624;2022-07-09T07:47:09;15.43;;;11.07;;
59042;SDS011;44826;51.596;5.624;2022-07-09T07:49:34;13.68;;;10.00;;
59042;SDS011;44826;51.596;5.624;2022-07-09T07:51:59;12.05;;;9.50;;
59042;SDS011;44826;51.596;5.624;2022-07-09T07:54:24;16.98;;;11.45;;
59042;SDS011;44826;51.596;5.624;2022-07-09T07:56:50;11.70;;;9.43;;
59042;SDS011;44826;51.596;5.624;2022-07-09T07:59:16;12.25;;;8.43;;
59042;SDS011;44826;51.596;5.624;2022-07-09T08:01:41;10.23;;;7.95;;
59042;SDS011;44826;51.596;5.624;2022-07-09T08:04:07;10.30;;;8.18;;
59042;SDS011;44826;51.596;5.624;2022-07-09T08:06:32;11.15;;;8.52;;
59042;SDS011;44826;51.596;5.624;2022-07-09T08:09:02;10.50;;;8.32;;
59042;SDS011;44826;51.596;5.624;2022-07-09T08:11:28;11.60;;;8.40;;
59042;SDS011;44826;51.596;5.624;2022-07-09T08:13:53;11.05;;;8.52;;
59042;SDS011;44826;51.596;5.624;2022-07-09T08:16:18;14.00;;;8.40;;
59042;SDS011;44826;51.596;5.624;2022-07-09T08:18:44;11.07;;;8.70;;
59042;SDS011;44826;51.596;5.624;2022-07-09T08:21:10;11.07;;;8.18;;
59042;SDS011;44826;51.596;5.624;2022-07-09T08:23:35;11.50;;;8.25;;
59042;SDS011;44826;51.596;5.624;2022-07-09T08:26:16;12.25;;;8.02;;
59042;SDS011;44826;51.596;5.624;2022-07-09T08:28:51;10.57;;;8.13;;
59042;SDS011;44826;51.596;5.624;2022-07-09T08:31:17;8.43;;;7.20;;
59042;SDS011;44826;51.596;5.624;2022-07-09T08:33:44;11.27;;;7.85;;
59042;SDS011;44826;51.596;5.624;2022-07-09T08:36:10;12.80;;;9.00;;
59042;SDS011;44826;51.596;5.624;2022-07-09T08:38:35;12.82;;;8.65;;
59042;SDS011;44826;51.596;5.624;2022-07-09T08:41:01;12.57;;;9.25;;
59042;SDS011;44826;51.596;5.624;2022-07-09T08:43:28;11.38;;;8.60;;
59042;SDS011;44826;51.596;5.624;2022-07-09T08:45:57;9.32;;;7.55;;
59042;SDS011;44826;51.596;5.624;2022-07-09T08:48:23;9.38;;;7.22;;
59042;SDS011;44826;51.596;5.624;2022-07-09T08:50:48;10.02;;;7.65;;
59042;SDS011;44826;51.596;5.624;2022-07-09T08:53:16;11.20;;;8.35;;
59042;SDS011;44826;51.596;5.624;2022-07-09T08:55:43;13.18;;;8.48;;
59042;SDS011;44826;51.596;5.624;2022-07-09T08:58:09;9.95;;;8.70;;
59042;SDS011;44826;51.596;5.624;2022-07-09T09:00:37;11.43;;;8.90;;
59042;SDS011;44826;51.596;5.624;2022-07-09T09:03:02;10.30;;;8.18;;
59042;SDS011;44826;51.596;5.624;2022-07-09T09:05:28;11.70;;;8.93;;
59042;SDS011;44826;51.596;5.624;2022-07-09T09:07:53;11.68;;;8.65;;
59042;SDS011;44826;51.596;5.624;2022-07-09T09:10:25;11.55;;;9.18;;
59042;SDS011;44826;51.596;5.624;2022-07-09T09:12:55;11.10;;;9.13;;
59042;SDS011;44826;51.596;5.624;2022-07-09T09:15:21;13.15;;;9.43;;
59042;SDS011;44826;51.596;5.624;2022-07-09T09:17:47;13.73;;;9.65;;
59042;SDS011;44826;51.596;5.624;2022-07-09T09:20:15;12.82;;;9.52;;
59042;SDS011;44826;51.596;5.624;2022-07-09T09:22:48;11.05;;;8.77;;
59042;SDS011;44826;51.596;5.624;2022-07-09T09:25:18;12.02;;;9.07;;
59042;SDS011;44826;51.596;5.624;2022-07-09T09:27:51;12.05;;;9.30;;
59042;SDS011;44826;51.596;5.624;2022-07-09T09:30:17;11.70;;;8.48;;
59042;SDS011;44826;51.596;5.624;2022-07-09T09:32:42;13.95;;;8.38;;
59042;SDS011;44826;51.596;5.624;2022-07-09T09:35:07;12.05;;;9.07;;
59042;SDS011;44826;51.596;5.624;2022-07-09T09:37:33;12.50;;;8.48;;
59042;SDS011;44826;51.596;5.624;2022-07-09T09:39:58;12.18;;;9.35;;
59042;SDS011;44826;51.596;5.624;2022-07-09T09:42:24;11.73;;;8.98;;
59042;SDS011;44826;51.596;5.624;2022-07-09T09:44:52;12.43;;;9.52;;
59042;SDS011;44826;51.596;5.624;2022-07-09T09:47:23;13.02;;;9.30;;
59042;SDS011;44826;51.596;5.624;2022-07-09T09:49:49;14.60;;;9.55;;
59042;SDS011;44826;51.596;5.624;2022-07-09T09:52:15;13.98;;;9.45;;
59042;SDS011;44826;51.596;5.624;2022-07-09T09:54:44;10.60;;;9.20;;
59042;SDS011;44826;51.596;5.624;2022-07-09T09:57:12;11.30;;;8.52;;
59042;SDS011;44826;51.596;5.624;2022-07-09T09:59:41;12.05;;;9.73;;
59042;SDS011;44826;51.596;5.624;2022-07-09T10:02:10;11.77;;;8.20;;
59042;SDS011;44826;51.596;5.624;2022-07-09T10:04:36;11.60;;;8.13;;
59042;SDS011;44826;51.596;5.624;2022-07-09T10:07:03;11.57;;;8.10;;
59042;SDS011;44826;51.596;5.624;2022-07-09T10:09:29;9.95;;;7.13;;
59042;SDS011;44826;51.596;5.624;2022-07-09T10:11:55;9.00;;;6.93;;
59042;SDS011;44826;51.596;5.624;2022-07-09T10:16:49;13.00;;;9.00;;
59042;SDS011;44826;51.596;5.624;2022-07-09T10:19:24;9.63;;;8.02;;
59042;SDS011;44826;51.596;5.624;2022-07-09T10:21:55;11.02;;;8.25;;
59042;SDS011;44826;51.596;5.624;2022-07-09T10:24:25;9.07;;;7.93;;
59042;SDS011;44826;51.596;5.624;2022-07-09T10:26:50;10.05;;;7.68;;
59042;SDS011;44826;51.596;5.624;2022-07-09T10:29:19;12.05;;;7.97;;
59042;SDS011;44826;51.596;5.624;2022-07-09T10:31:46;11.13;;;8.37;;
59042;SDS011;44826;51.596;5.624;2022-07-09T10:34:16;11.32;;;8.07;;
59042;SDS011;44826;51.596;5.624;2022-07-09T10:37:05;12.52;;;8.43;;
59042;SDS011;44826;51.596;5.624;2022-07-09T10:39:31;12.38;;;7.95;;
59042;SDS011;44826;51.596;5.624;2022-07-09T10:42:01;11.68;;;7.28;;
59042;SDS011;44826;51.596;5.624;2022-07-09T10:44:35;10.10;;;6.88;;
59042;SDS011;44826;51.596;5.624;2022-07-09T10:47:00;10.90;;;7.90;;
59042;SDS011;44826;51.596;5.624;2022-07-09T10:49:26;10.38;;;7.03;;
59042;SDS011;44826;51.596;5.624;2022-07-09T10:51:56;7.68;;;5.93;;
59042;SDS011;44826;51.596;5.624;2022-07-09T10:54:25;7.50;;;5.50;;
59042;SDS011;44826;51.596;5.624;2022-07-09T10:56:51;8.25;;;6.32;;
59042;SDS011;44826;51.596;5.624;2022-07-09T10:59:17;10.27;;;6.97;;
59042;SDS011;44826;51.596;5.624;2022-07-09T11:01:43;10.73;;;7.82;;
59042;SDS011;44826;51.596;5.624;2022-07-09T11:04:08;10.00;;;6.53;;
59042;SDS011;44826;51.596;5.624;2022-07-09T11:06:43;5.60;;;4.70;;
59042;SDS011;44826;51.596;5.624;2022-07-09T11:09:13;5.50;;;4.47;;
59042;SDS011;44826;51.596;5.624;2022-07-09T11:11:42;5.40;;;4.22;;
59042;SDS011;44826;51.596;5.624;2022-07-09T11:14:09;6.10;;;3.50;;
59042;SDS011;44826;51.596;5.624;2022-07-09T11:16:35;5.75;;;3.60;;
59042;SDS011;44826;51.596;5.624;2022-07-09T11:19:11;5.15;;;3.55;;
59042;SDS011;44826;51.596;5.624;2022-07-09T11:21:38;4.45;;;3.20;;
59042;SDS011;44826;51.596;5.624;2022-07-09T11:24:11;5.40;;;3.17;;
59042;SDS011;44826;51.596;5.624;2022-07-09T11:26:37;5.03;;;2.90;;
59042;SDS011;44826;51.596;5.624;2022-07-09T11:29:03;4.97;;;3.10;;
59042;SDS011;44826;51.596;5.624;2022-07-09T11:31:28;10.77;;;3.40;;
59042;SDS011;44826;51.596;5.624;2022-07-09T11:33:54;3.65;;;3.20;;
59042;SDS011;44826;51.596;5.624;2022-07-09T11:36:47;4.97;;;2.25;;
59042;SDS011;44826;51.596;5.624;2022-07-09T11:39:26;4.53;;;2.10;;
59042;SDS011;44826;51.596;5.624;2022-07-09T11:41:52;2.63;;;1.45;;
59042;SDS011;44826;51.596;5.624;2022-07-09T11:44:21;3.90;;;1.50;;
59042;SDS011;44826;51.596;5.624;2022-07-09T11:49:37;2.55;;;1.50;;
59042;SDS011;44826;51.596;5.624;2022-07-09T11:52:15;3.95;;;1.85;;
59042;SDS011;44826;51.596;5.624;2022-07-09T11:54:55;4.70;;;1.90;;
59042;SDS011;44826;51.596;5.624;2022-07-09T11:57:27;5.40;;;1.42;;
59042;SDS011;44826;51.596;5.624;2022-07-09T11:59:54;2.70;;;1.42;;
59042;SDS011;44826;51.596;5.624;2022-07-09T12:02:33;2.55;;;1.30;;
59042;SDS011;44826;51.596;5.624;2022-07-09T12:05:00;2.28;;;1.20;;
59042;SDS011;44826;51.596;5.624;2022-07-09T12:07:28;3.58;;;1.20;;
59042;SDS011;44826;51.596;5.624;2022-07-09T12:09:59;2.95;;;1.10;;
59042;SDS011;44826;51.596;5.624;2022-07-09T12:12:26;2.88;;;1.30;;
59042;SDS011;44826;51.596;5.624;2022-07-09T12:14:52;3.50;;;1.20;;
59042;SDS011;44826;51.596;5.624;2022-07-09T12:17:18;27.23;;;2.20;;
59042;SDS011;44826;51.596;5.624;2022-07-09T12:19:51;3.63;;;1.20;;
59042;SDS011;44826;51.596;5.624;2022-07-09T12:22:17;2.80;;;1.08;;
59042;SDS011;44826;51.596;5.624;2022-07-09T12:24:42;1.45;;;0.93;;
59042;SDS011;44826;51.596;5.624;2022-07-09T12:27:08;3.65;;;1.05;;
59042;SDS011;44826;51.596;5.624;2022-07-09T12:29:34;2.13;;;0.80;;
59042;SDS011;44826;51.596;5.624;2022-07-09T12:31:59;1.98;;;0.90;;
59042;SDS011;44826;51.596;5.624;2022-07-09T12:34:24;2.53;;;0.90;;
59042;SDS011;44826;51.596;5.624;2022-07-09T12:36:50;2.67;;;0.80;;
59042;SDS011;44826;51.596;5.624;2022-07-09T12:39:15;2.10;;;0.80;;
59042;SDS011;44826;51.596;5.624;2022-07-09T12:41:40;1.48;;;0.70;;
59042;SDS011;44826;51.596;5.624;2022-07-09T12:44:05;2.65;;;0.75;;
59042;SDS011;44826;51.596;5.624;2022-07-09T12:46:31;2.20;;;0.85;;
59042;SDS011;44826;51.596;5.624;2022-07-09T12:48:56;1.17;;;0.75;;
59042;SDS011;44826;51.596;5.624;2022-07-09T12:51:21;1.20;;;0.90;;
59042;SDS011;44826;51.596;5.624;2022-07-09T12:53:47;1.20;;;0.70;;
59042;SDS011;44826;51.596;5.624;2022-07-09T12:56:12;1.25;;;0.80;;
59042;SDS011;44826;51.596;5.624;2022-07-09T12:58:37;0.75;;;0.60;;
59042;SDS011;44826;51.596;5.624;2022-07-09T13:01:02;3.38;;;0.60;;
59042;SDS011;44826;51.596;5.624;2022-07-09T13:03:28;0.77;;;0.50;;
59042;SDS011;44826;51.596;5.624;2022-07-09T13:05:53;0.65;;;0.60;;
59042;SDS011;44826;51.596;5.624;2022-07-09T13:08:18;2.83;;;0.63;;
59042;SDS011;44826;51.596;5.624;2022-07-09T13:10:44;1.23;;;0.80;;
59042;SDS011;44826;51.596;5.624;2022-07-09T13:13:09;1.25;;;0.60;;
59042;SDS011;44826;51.596;5.624;2022-07-09T13:15:34;1.33;;;0.70;;
59042;SDS011;44826;51.596;5.624;2022-07-09T13:18:00;0.88;;;0.60;;
59042;SDS011;44826;51.596;5.624;2022-07-09T13:20:25;1.35;;;0.73;;
59042;SDS011;44826;51.596;5.624;2022-07-09T13:22:51;2.92;;;0.70;;
59042;SDS011;44826;51.596;5.624;2022-07-09T13:25:16;1.77;;;0.50;;
59042;SDS011;44826;51.596;5.624;2022-07-09T13:27:41;1.08;;;0.70;;
59042;SDS011;44826;51.596;5.624;2022-07-09T13:30:06;2.13;;;0.70;;
59042;SDS011;44826;51.596;5.624;2022-07-09T13:32:32;2.38;;;0.70;;
59042;SDS011;44826;51.596;5.624;2022-07-09T13:34:57;1.80;;;0.88;;
59042;SDS011;44826;51.596;5.624;2022-07-09T13:37:23;1.27;;;0.70;;
59042;SDS011;44826;51.596;5.624;2022-07-09T13:39:48;1.85;;;0.63;;
59042;SDS011;44826;51.596;5.624;2022-07-09T13:42:13;1.20;;;0.60;;
59042;SDS011;44826;51.596;5.624;2022-07-09T13:44:39;1.63;;;0.80;;
59042;SDS011;44826;51.596;5.624;2022-07-09T13:47:04;4.88;;;0.77;;
59042;SDS011;44826;51.596;5.624;2022-07-09T13:49:29;0.73;;;0.63;;
59042;SDS011;44826;51.596;5.624;2022-07-09T13:51:55;1.95;;;0.73;;
59042;SDS011;44826;51.596;5.624;2022-07-09T13:54:22;1.60;;;0.90;;
59042;SDS011;44826;51.596;5.624;2022-07-09T13:56:47;1.52;;;0.80;;
59042;SDS011;44826;51.596;5.624;2022-07-09T13:59:12;3.05;;;0.70;;
59042;SDS011;44826;51.596;5.624;2022-07-09T14:01:37;2.08;;;0.70;;
59042;SDS011;44826;51.596;5.624;2022-07-09T14:04:03;1.83;;;0.70;;
59042;SDS011;44826;51.596;5.624;2022-07-09T14:06:28;2.70;;;0.80;;
59042;SDS011;44826;51.596;5.624;2022-07-09T14:08:55;3.38;;;1.00;;
59042;SDS011;44826;51.596;5.624;2022-07-09T14:11:20;2.30;;;0.85;;
59042;SDS011;44826;51.596;5.624;2022-07-09T14:13:45;2.17;;;0.80;;
59042;SDS011;44826;51.596;5.624;2022-07-09T14:16:13;1.98;;;0.90;;
59042;SDS011;44826;51.596;5.624;2022-07-09T14:18:38;1.88;;;0.70;;
59042;SDS011;44826;51.596;5.624;2022-07-09T14:21:03;3.25;;;0.95;;
59042;SDS011;44826;51.596;5.624;2022-07-09T14:23:29;1.65;;;0.63;;
59042;SDS011;44826;51.596;5.624;2022-07-09T14:25:55;3.08;;;0.80;;
59042;SDS011;44826;51.596;5.624;2022-07-09T14:28:20;2.75;;;0.90;;
59042;SDS011;44826;51.596;5.624;2022-07-09T14:30:46;3.00;;;0.90;;
59042;SDS011;44826;51.596;5.624;2022-07-09T14:33:12;2.25;;;0.90;;
59042;SDS011;44826;51.596;5.624;2022-07-09T14:35:38;1.38;;;0.77;;
59042;SDS011;44826;51.596;5.624;2022-07-09T14:38:04;1.13;;;0.80;;